KAPG/APG METAR and TAF weather

Enter ICAO airport designator
Station Type Date Time Source
KAPG METAR 2018/07/20 13:58 UTC NOAA

KAPG 201358Z AUTO 16005KT 10SM CLR 27/16 A3015 RMK AO2 SLP213 T02660157


Station Type Date Time Source
KAPG Decoded METAR 2018/07/20 13:58 UTC NOAA

Phillips Army Air Field / Aberdeen, MD, United States (KAPG) 39-28N 076-10W
Jul 20, 2018 - 09:58 AM EDT / 2018.07.20 1358 UTC
Wind: from the SSE (160 degrees) at 6 MPH (5 KT):0
Visibility: 10 mile(s):0
Sky conditions: clear
Temperature: 79.9 F (26.6 C)
Dew Point: 60.3 F (15.7 C)
Relative Humidity: 51%
Pressure (altimeter): 30.15 in. Hg (1020 hPa)
ob: KAPG 201358Z AUTO 16005KT 10SM CLR 27/16 A3015 RMK AO2 SLP213 T02660157
cycle: 14

Station Type Date Time Source
KAPG TAF UTC NOAA

Error!


Example: see airport list